sensor_id;sensor_type;location;lat;lon;timestamp;P1;P2;P0
69123;PMS5003;56232;53.384;-2.732;2022-09-09T00:01:25;34;33;
69123;PMS5003;56232;53.384;-2.732;2022-09-09T00:03:50;32;32;
69123;PMS5003;56232;53.384;-2.732;2022-09-09T00:06:16;31;31;
69123;PMS5003;56232;53.384;-2.732;2022-09-09T00:08:41;43;42;
69123;PMS5003;56232;53.384;-2.732;2022-09-09T00:11:07;37;37;
69123;PMS5003;56232;53.384;-2.732;2022-09-09T00:13:32;38;37;
69123;PMS5003;56232;53.384;-2.732;2022-09-09T00:15:57;43;41;
69123;PMS5003;56232;53.384;-2.732;2022-09-09T00:18:23;35;33;
69123;PMS5003;56232;53.384;-2.732;2022-09-09T00:20:49;37;36;
69123;PMS5003;56232;53.384;-2.732;2022-09-09T00:23:13;36;34;
69123;PMS5003;56232;53.384;-2.732;2022-09-09T00:25:39;40;38;
69123;PMS5003;56232;53.384;-2.732;2022-09-09T00:28:02;33;32;
69123;PMS5003;56232;53.384;-2.732;2022-09-09T00:30:30;31;30;
69123;PMS5003;56232;53.384;-2.732;2022-09-09T00:32:54;30;29;
69123;PMS5003;56232;53.384;-2.732;2022-09-09T00:35:21;29;27;
69123;PMS5003;56232;53.384;-2.732;2022-09-09T00:37:44;35;34;
69123;PMS5003;56232;53.384;-2.732;2022-09-09T00:40:15;37;37;
69123;PMS5003;56232;53.384;-2.732;2022-09-09T00:42:36;29;29;
69123;PMS5003;56232;53.384;-2.732;2022-09-09T00:45:02;34;34;
69123;PMS5003;56232;53.384;-2.732;2022-09-09T00:47:31;25;25;
69123;PMS5003;56232;53.384;-2.732;2022-09-09T00:49:54;39;37;
69123;PMS5003;56232;53.384;-2.732;2022-09-09T00:52:21;34;33;
69123;PMS5003;56232;53.384;-2.732;2022-09-09T00:54:44;32;32;
69123;PMS5003;56232;53.384;-2.732;2022-09-09T00:57:12;33;32;
69123;PMS5003;56232;53.384;-2.732;2022-09-09T00:59:35;31;31;
69123;PMS5003;56232;53.384;-2.732;2022-09-09T01:01:58;28;28;
69123;PMS5003;56232;53.384;-2.732;2022-09-09T01:04:26;31;31;
69123;PMS5003;56232;53.384;-2.732;2022-09-09T01:06:50;29;29;
69123;PMS5003;56232;53.384;-2.732;2022-09-09T01:09:16;28;28;
69123;PMS5003;56232;53.384;-2.732;2022-09-09T01:11:43;28;28;
69123;PMS5003;56232;53.384;-2.732;2022-09-09T01:14:10;27;27;
69123;PMS5003;56232;53.384;-2.732;2022-09-09T01:16:30;31;30;
69123;PMS5003;56232;53.384;-2.732;2022-09-09T01:18:55;27;27;
69123;PMS5003;56232;53.384;-2.732;2022-09-09T01:21:22;25;24;
69123;PMS5003;56232;53.384;-2.732;2022-09-09T01:23:52;29;28;
69123;PMS5003;56232;53.384;-2.732;2022-09-09T01:26:13;24;24;
69123;PMS5003;56232;53.384;-2.732;2022-09-09T01:28:36;22;20;
69123;PMS5003;56232;53.384;-2.732;2022-09-09T01:31:02;27;26;
69123;PMS5003;56232;53.384;-2.732;2022-09-09T01:33:27;33;31;
69123;PMS5003;56232;53.384;-2.732;2022-09-09T01:35:53;28;28;
69123;PMS5003;56232;53.384;-2.732;2022-09-09T01:38:18;32;30;
69123;PMS5003;56232;53.384;-2.732;2022-09-09T01:40:44;29;28;
69123;PMS5003;56232;53.384;-2.732;2022-09-09T01:43:09;27;26;
69123;PMS5003;56232;53.384;-2.732;2022-09-09T01:45:34;26;26;
69123;PMS5003;56232;53.384;-2.732;2022-09-09T01:48:00;27;25;
69123;PMS5003;56232;53.384;-2.732;2022-09-09T01:50:25;27;27;
69123;PMS5003;56232;53.384;-2.732;2022-09-09T01:52:52;26;24;
69123;PMS5003;56232;53.384;-2.732;2022-09-09T01:55:15;24;22;
69123;PMS5003;56232;53.384;-2.732;2022-09-09T01:57:43;30;30;
69123;PMS5003;56232;53.384;-2.732;2022-09-09T02:00:07;25;25;
69123;PMS5003;56232;53.384;-2.732;2022-09-09T02:02:32;28;28;
69123;PMS5003;56232;53.384;-2.732;2022-09-09T02:04:59;25;24;
69123;PMS5003;56232;53.384;-2.732;2022-09-09T02:07:26;25;24;
69123;PMS5003;56232;53.384;-2.732;2022-09-09T02:09:49;26;25;
69123;PMS5003;56232;53.384;-2.732;2022-09-09T02:12:13;25;25;
69123;PMS5003;56232;53.384;-2.732;2022-09-09T02:14:39;27;26;
69123;PMS5003;56232;53.384;-2.732;2022-09-09T02:17:06;27;27;
69123;PMS5003;56232;53.384;-2.732;2022-09-09T02:19:29;27;26;
69123;PMS5003;56232;53.384;-2.732;2022-09-09T02:21:54;31;29;
69123;PMS5003;56232;53.384;-2.732;2022-09-09T02:24:19;32;31;
69123;PMS5003;56232;53.384;-2.732;2022-09-09T02:26:46;34;33;
69123;PMS5003;56232;53.384;-2.732;2022-09-09T02:29:12;31;30;
69123;PMS5003;56232;53.384;-2.732;2022-09-09T02:31:36;29;28;
69123;PMS5003;56232;53.384;-2.732;2022-09-09T02:34:01;32;30;
69123;PMS5003;56232;53.384;-2.732;2022-09-09T02:36:26;26;26;
69123;PMS5003;56232;53.384;-2.732;2022-09-09T02:38:51;31;31;
69123;PMS5003;56232;53.384;-2.732;2022-09-09T02:41:16;29;28;
69123;PMS5003;56232;53.384;-2.732;2022-09-09T02:43:42;27;26;
69123;PMS5003;56232;53.384;-2.732;2022-09-09T02:46:08;29;29;
69123;PMS5003;56232;53.384;-2.732;2022-09-09T02:48:33;29;28;
69123;PMS5003;56232;53.384;-2.732;2022-09-09T02:50:58;26;26;
69123;PMS5003;56232;53.384;-2.732;2022-09-09T02:53:24;32;31;
69123;PMS5003;56232;53.384;-2.732;2022-09-09T02:55:49;22;22;
69123;PMS5003;56232;53.384;-2.732;2022-09-09T02:58:14;24;24;
69123;PMS5003;56232;53.384;-2.732;2022-09-09T03:00:39;24;24;
69123;PMS5003;56232;53.384;-2.732;2022-09-09T03:03:04;27;26;
69123;PMS5003;56232;53.384;-2.732;2022-09-09T03:05:29;29;26;
69123;PMS5003;56232;53.384;-2.732;2022-09-09T03:07:55;26;24;
69123;PMS5003;56232;53.384;-2.732;2022-09-09T03:10:20;24;24;
69123;PMS5003;56232;53.384;-2.732;2022-09-09T03:12:46;30;30;
69123;PMS5003;56232;53.384;-2.732;2022-09-09T03:15:11;28;28;
69123;PMS5003;56232;53.384;-2.732;2022-09-09T03:17:36;26;26;
69123;PMS5003;56232;53.384;-2.732;2022-09-09T03:20:01;31;31;
69123;PMS5003;56232;53.384;-2.732;2022-09-09T03:22:27;26;24;
69123;PMS5003;56232;53.384;-2.732;2022-09-09T03:24:52;27;27;
69123;PMS5003;56232;53.384;-2.732;2022-09-09T03:27:17;30;29;
69123;PMS5003;56232;53.384;-2.732;2022-09-09T03:29:43;23;23;
69123;PMS5003;56232;53.384;-2.732;2022-09-09T03:32:08;27;26;
69123;PMS5003;56232;53.384;-2.732;2022-09-09T03:34:33;28;28;
69123;PMS5003;56232;53.384;-2.732;2022-09-09T03:36:59;27;26;
69123;PMS5003;56232;53.384;-2.732;2022-09-09T03:39:24;25;25;
69123;PMS5003;56232;53.384;-2.732;2022-09-09T03:41:49;27;27;
69123;PMS5003;56232;53.384;-2.732;2022-09-09T03:44:15;29;29;
69123;PMS5003;56232;53.384;-2.732;2022-09-09T03:46:41;34;31;
69123;PMS5003;56232;53.384;-2.732;2022-09-09T03:49:06;30;28;
69123;PMS5003;56232;53.384;-2.732;2022-09-09T03:51:31;25;24;
69123;PMS5003;56232;53.384;-2.732;2022-09-09T03:53:56;37;35;
69123;PMS5003;56232;53.384;-2.732;2022-09-09T03:56:22;29;29;
69123;PMS5003;56232;53.384;-2.732;2022-09-09T03:58:47;28;27;
69123;PMS5003;56232;53.384;-2.732;2022-09-09T04:01:12;32;32;
69123;PMS5003;56232;53.384;-2.732;2022-09-09T04:03:37;31;30;
69123;PMS5003;56232;53.384;-2.732;2022-09-09T04:06:03;28;28;
69123;PMS5003;56232;53.384;-2.732;2022-09-09T04:08:28;29;28;
69123;PMS5003;56232;53.384;-2.732;2022-09-09T04:10:54;30;28;
69123;PMS5003;56232;53.384;-2.732;2022-09-09T04:13:19;36;34;
69123;PMS5003;56232;53.384;-2.732;2022-09-09T04:18:09;25;25;
69123;PMS5003;56232;53.384;-2.732;2022-09-09T04:20:35;34;33;
69123;PMS5003;56232;53.384;-2.732;2022-09-09T04:23:00;30;29;
69123;PMS5003;56232;53.384;-2.732;2022-09-09T04:25:25;30;29;
69123;PMS5003;56232;53.384;-2.732;2022-09-09T04:27:53;27;27;
69123;PMS5003;56232;53.384;-2.732;2022-09-09T04:30:16;31;31;
69123;PMS5003;56232;53.384;-2.732;2022-09-09T04:32:42;26;26;
69123;PMS5003;56232;53.384;-2.732;2022-09-09T04:35:07;35;33;
69123;PMS5003;56232;53.384;-2.732;2022-09-09T04:37:32;39;37;
69123;PMS5003;56232;53.384;-2.732;2022-09-09T04:39:58;39;38;
69123;PMS5003;56232;53.384;-2.732;2022-09-09T04:42:23;28;28;
69123;PMS5003;56232;53.384;-2.732;2022-09-09T04:44:48;29;28;
69123;PMS5003;56232;53.384;-2.732;2022-09-09T04:47:14;32;30;
69123;PMS5003;56232;53.384;-2.732;2022-09-09T04:49:39;32;31;
69123;PMS5003;56232;53.384;-2.732;2022-09-09T04:52:10;30;29;
69123;PMS5003;56232;53.384;-2.732;2022-09-09T04:54:30;33;32;
69123;PMS5003;56232;53.384;-2.732;2022-09-09T04:56:56;31;30;
69123;PMS5003;56232;53.384;-2.732;2022-09-09T04:59:21;33;33;
69123;PMS5003;56232;53.384;-2.732;2022-09-09T05:01:46;38;37;
69123;PMS5003;56232;53.384;-2.732;2022-09-09T05:04:12;32;31;
69123;PMS5003;56232;53.384;-2.732;2022-09-09T05:06:37;26;26;
69123;PMS5003;56232;53.384;-2.732;2022-09-09T05:09:03;30;30;
69123;PMS5003;56232;53.384;-2.732;2022-09-09T05:11:29;29;29;
69123;PMS5003;56232;53.384;-2.732;2022-09-09T05:13:53;31;30;
69123;PMS5003;56232;53.384;-2.732;2022-09-09T05:16:19;35;34;
69123;PMS5003;56232;53.384;-2.732;2022-09-09T05:18:45;34;33;
69123;PMS5003;56232;53.384;-2.732;2022-09-09T05:21:09;28;28;
69123;PMS5003;56232;53.384;-2.732;2022-09-09T05:23:35;30;28;
69123;PMS5003;56232;53.384;-2.732;2022-09-09T05:26:00;28;27;
69123;PMS5003;56232;53.384;-2.732;2022-09-09T05:28:26;30;30;
69123;PMS5003;56232;53.384;-2.732;2022-09-09T05:33:16;36;36;
69123;PMS5003;56232;53.384;-2.732;2022-09-09T05:35:42;29;28;
69123;PMS5003;56232;53.384;-2.732;2022-09-09T05:38:07;29;29;
69123;PMS5003;56232;53.384;-2.732;2022-09-09T05:40:33;29;28;
69123;PMS5003;56232;53.384;-2.732;2022-09-09T05:42:59;34;33;
69123;PMS5003;56232;53.384;-2.732;2022-09-09T05:45:23;30;29;
69123;PMS5003;56232;53.384;-2.732;2022-09-09T05:47:51;27;27;
69123;PMS5003;56232;53.384;-2.732;2022-09-09T05:50:14;31;31;
69123;PMS5003;56232;53.384;-2.732;2022-09-09T05:52:39;28;28;
69123;PMS5003;56232;53.384;-2.732;2022-09-09T05:55:06;33;33;
69123;PMS5003;56232;53.384;-2.732;2022-09-09T05:57:30;28;28;
69123;PMS5003;56232;53.384;-2.732;2022-09-09T05:59:55;34;33;
69123;PMS5003;56232;53.384;-2.732;2022-09-09T06:02:21;32;32;
69123;PMS5003;56232;53.384;-2.732;2022-09-09T06:04:46;31;30;
69123;PMS5003;56232;53.384;-2.732;2022-09-09T06:07:12;29;29;
69123;PMS5003;56232;53.384;-2.732;2022-09-09T06:09:37;33;32;
69123;PMS5003;56232;53.384;-2.732;2022-09-09T06:12:03;30;29;
69123;PMS5003;56232;53.384;-2.732;2022-09-09T06:14:28;35;34;
69123;PMS5003;56232;53.384;-2.732;2022-09-09T06:16:54;28;27;
69123;PMS5003;56232;53.384;-2.732;2022-09-09T06:19:19;27;27;
69123;PMS5003;56232;53.384;-2.732;2022-09-09T06:21:45;26;26;
69123;PMS5003;56232;53.384;-2.732;2022-09-09T06:24:10;29;29;
69123;PMS5003;56232;53.384;-2.732;2022-09-09T06:26:36;30;29;
69123;PMS5003;56232;53.384;-2.732;2022-09-09T06:29:02;27;27;
69123;PMS5003;56232;53.384;-2.732;2022-09-09T06:31:27;24;24;
69123;PMS5003;56232;53.384;-2.732;2022-09-09T06:33:52;27;25;
69123;PMS5003;56232;53.384;-2.732;2022-09-09T06:36:17;27;27;
69123;PMS5003;56232;53.384;-2.732;2022-09-09T06:38:43;32;32;
69123;PMS5003;56232;53.384;-2.732;2022-09-09T06:41:08;25;25;
69123;PMS5003;56232;53.384;-2.732;2022-09-09T06:43:33;30;29;
69123;PMS5003;56232;53.384;-2.732;2022-09-09T06:46:00;27;26;
69123;PMS5003;56232;53.384;-2.732;2022-09-09T06:48:24;33;32;
69123;PMS5003;56232;53.384;-2.732;2022-09-09T06:50:50;31;28;
69123;PMS5003;56232;53.384;-2.732;2022-09-09T06:53:16;35;34;
69123;PMS5003;56232;53.384;-2.732;2022-09-09T06:55:41;31;30;
69123;PMS5003;56232;53.384;-2.732;2022-09-09T06:58:07;34;33;
69123;PMS5003;56232;53.384;-2.732;2022-09-09T07:00:31;30;29;
69123;PMS5003;56232;53.384;-2.732;2022-09-09T07:02:57;32;31;
69123;PMS5003;56232;53.384;-2.732;2022-09-09T07:05:22;31;30;
69123;PMS5003;56232;53.384;-2.732;2022-09-09T07:07:47;23;22;
69123;PMS5003;56232;53.384;-2.732;2022-09-09T07:10:13;32;32;
69123;PMS5003;56232;53.384;-2.732;2022-09-09T07:12:38;28;27;
69123;PMS5003;56232;53.384;-2.732;2022-09-09T07:15:04;30;29;
69123;PMS5003;56232;53.384;-2.732;2022-09-09T07:17:29;26;26;
69123;PMS5003;56232;53.384;-2.732;2022-09-09T07:19:54;26;26;
69123;PMS5003;56232;53.384;-2.732;2022-09-09T07:22:19;32;31;
69123;PMS5003;56232;53.384;-2.732;2022-09-09T07:24:45;30;29;
69123;PMS5003;56232;53.384;-2.732;2022-09-09T07:27:10;29;28;
69123;PMS5003;56232;53.384;-2.732;2022-09-09T07:29:35;33;32;
69123;PMS5003;56232;53.384;-2.732;2022-09-09T07:32:01;28;28;
69123;PMS5003;56232;53.384;-2.732;2022-09-09T07:34:26;33;32;
69123;PMS5003;56232;53.384;-2.732;2022-09-09T07:36:51;31;30;
69123;PMS5003;56232;53.384;-2.732;2022-09-09T07:39:17;33;32;
69123;PMS5003;56232;53.384;-2.732;2022-09-09T07:41:43;26;26;
69123;PMS5003;56232;53.384;-2.732;2022-09-09T07:44:08;25;25;
69123;PMS5003;56232;53.384;-2.732;2022-09-09T07:46:33;34;32;
69123;PMS5003;56232;53.384;-2.732;2022-09-09T07:48:58;30;29;
69123;PMS5003;56232;53.384;-2.732;2022-09-09T07:51:24;28;28;
69123;PMS5003;56232;53.384;-2.732;2022-09-09T07:53:51;25;25;
69123;PMS5003;56232;53.384;-2.732;2022-09-09T07:56:14;33;32;
69123;PMS5003;56232;53.384;-2.732;2022-09-09T07:58:39;28;27;
69123;PMS5003;56232;53.384;-2.732;2022-09-09T08:01:06;26;26;
69123;PMS5003;56232;53.384;-2.732;2022-09-09T08:03:30;23;23;
69123;PMS5003;56232;53.384;-2.732;2022-09-09T08:06:00;23;22;
69123;PMS5003;56232;53.384;-2.732;2022-09-09T08:08:21;21;21;
69123;PMS5003;56232;53.384;-2.732;2022-09-09T08:10:46;29;29;
69123;PMS5003;56232;53.384;-2.732;2022-09-09T08:13:12;22;21;
69123;PMS5003;56232;53.384;-2.732;2022-09-09T08:15:37;25;24;
69123;PMS5003;56232;53.384;-2.732;2022-09-09T08:18:03;22;21;
69123;PMS5003;56232;53.384;-2.732;2022-09-09T08:20:28;24;24;
69123;PMS5003;56232;53.384;-2.732;2022-09-09T08:22:54;20;20;
69123;PMS5003;56232;53.384;-2.732;2022-09-09T08:25:19;24;24;
69123;PMS5003;56232;53.384;-2.732;2022-09-09T08:27:45;20;19;
69123;PMS5003;56232;53.384;-2.732;2022-09-09T08:30:10;17;17;
69123;PMS5003;56232;53.384;-2.732;2022-09-09T08:32:35;20;20;
69123;PMS5003;56232;53.384;-2.732;2022-09-09T08:35:00;20;20;
69123;PMS5003;56232;53.384;-2.732;2022-09-09T08:37:26;20;19;
69123;PMS5003;56232;53.384;-2.732;2022-09-09T08:39:51;17;17;
69123;PMS5003;56232;53.384;-2.732;2022-09-09T08:44:46;14;14;
69123;PMS5003;56232;53.384;-2.732;2022-09-09T08:47:09;14;14;
69123;PMS5003;56232;53.384;-2.732;2022-09-09T08:49:38;14;13;
69123;PMS5003;56232;53.384;-2.732;2022-09-09T08:51:58;14;14;
69123;PMS5003;56232;53.384;-2.732;2022-09-09T08:54:24;16;15;
69123;PMS5003;56232;53.384;-2.732;2022-09-09T08:56:50;18;18;
69123;PMS5003;56232;53.384;-2.732;2022-09-09T08:59:16;16;16;
69123;PMS5003;56232;53.384;-2.732;2022-09-09T09:01:43;15;14;
69123;PMS5003;56232;53.384;-2.732;2022-09-09T09:04:07;13;13;
69123;PMS5003;56232;53.384;-2.732;2022-09-09T09:06:36;9;9;
69123;PMS5003;56232;53.384;-2.732;2022-09-09T09:08:59;16;16;
69123;PMS5003;56232;53.384;-2.732;2022-09-09T09:11:22;16;16;
69123;PMS5003;56232;53.384;-2.732;2022-09-09T09:13:48;11;11;
69123;PMS5003;56232;53.384;-2.732;2022-09-09T09:16:15;13;13;
69123;PMS5003;56232;53.384;-2.732;2022-09-09T09:18:38;15;14;
69123;PMS5003;56232;53.384;-2.732;2022-09-09T09:21:05;15;15;
69123;PMS5003;56232;53.384;-2.732;2022-09-09T09:23:30;14;14;
69123;PMS5003;56232;53.384;-2.732;2022-09-09T09:25:55;13;13;
69123;PMS5003;56232;53.384;-2.732;2022-09-09T09:28:21;10;10;
69123;PMS5003;56232;53.384;-2.732;2022-09-09T09:30:47;12;11;
69123;PMS5003;56232;53.384;-2.732;2022-09-09T09:33:12;14;12;
69123;PMS5003;56232;53.384;-2.732;2022-09-09T09:35:36;11;11;
69123;PMS5003;56232;53.384;-2.732;2022-09-09T09:38:05;11;11;
69123;PMS5003;56232;53.384;-2.732;2022-09-09T09:40:27;13;13;
69123;PMS5003;56232;53.384;-2.732;2022-09-09T09:42:54;10;10;
69123;PMS5003;56232;53.384;-2.732;2022-09-09T09:45:23;18;15;
69123;PMS5003;56232;53.384;-2.732;2022-09-09T09:47:44;11;11;
69123;PMS5003;56232;53.384;-2.732;2022-09-09T09:52:35;15;14;
69123;PMS5003;56232;53.384;-2.732;2022-09-09T09:55:02;12;12;
69123;PMS5003;56232;53.384;-2.732;2022-09-09T09:57:26;12;12;
69123;PMS5003;56232;53.384;-2.732;2022-09-09T10:02:18;13;12;
69123;PMS5003;56232;53.384;-2.732;2022-09-09T10:04:43;12;12;
69123;PMS5003;56232;53.384;-2.732;2022-09-09T10:07:10;12;11;
69123;PMS5003;56232;53.384;-2.732;2022-09-09T10:09:33;13;12;
69123;PMS5003;56232;53.384;-2.732;2022-09-09T10:12:00;10;10;
69123;PMS5003;56232;53.384;-2.732;2022-09-09T10:14:25;14;13;
69123;PMS5003;56232;53.384;-2.732;2022-09-09T10:16:55;10;9;
69123;PMS5003;56232;53.384;-2.732;2022-09-09T10:19:16;11;10;
69123;PMS5003;56232;53.384;-2.732;2022-09-09T10:21:45;10;10;
69123;PMS5003;56232;53.384;-2.732;2022-09-09T10:24:14;9;8;
69123;PMS5003;56232;53.384;-2.732;2022-09-09T10:26:35;10;9;
69123;PMS5003;56232;53.384;-2.732;2022-09-09T10:29:02;10;10;
69123;PMS5003;56232;53.384;-2.732;2022-09-09T10:31:25;10;10;
69123;PMS5003;56232;53.384;-2.732;2022-09-09T10:33:50;12;12;
69123;PMS5003;56232;53.384;-2.732;2022-09-09T10:36:16;9;9;
69123;PMS5003;56232;53.384;-2.732;2022-09-09T10:38:40;11;11;
69123;PMS5003;56232;53.384;-2.732;2022-09-09T10:41:09;11;10;
69123;PMS5003;56232;53.384;-2.732;2022-09-09T10:43:37;9;9;
69123;PMS5003;56232;53.384;-2.732;2022-09-09T10:45:59;10;10;
69123;PMS5003;56232;53.384;-2.732;2022-09-09T10:48:26;8;8;
69123;PMS5003;56232;53.384;-2.732;2022-09-09T10:50:50;11;11;
69123;PMS5003;56232;53.384;-2.732;2022-09-09T10:53:14;10;10;
69123;PMS5003;56232;53.384;-2.732;2022-09-09T10:55:39;8;8;
69123;PMS5003;56232;53.384;-2.732;2022-09-09T10:58:04;10;9;
69123;PMS5003;56232;53.384;-2.732;2022-09-09T11:00:31;9;8;
69123;PMS5003;56232;53.384;-2.732;2022-09-09T11:02:56;7;7;
69123;PMS5003;56232;53.384;-2.732;2022-09-09T11:05:21;7;7;
69123;PMS5003;56232;53.384;-2.732;2022-09-09T11:07:47;6;6;
69123;PMS5003;56232;53.384;-2.732;2022-09-09T11:10:16;4;4;
69123;PMS5003;56232;53.384;-2.732;2022-09-09T11:12:37;7;7;
69123;PMS5003;56232;53.384;-2.732;2022-09-09T11:15:04;5;5;
69123;PMS5003;56232;53.384;-2.732;2022-09-09T11:17:30;5;3;
69123;PMS5003;56232;53.384;-2.732;2022-09-09T11:19:53;6;6;
69123;PMS5003;56232;53.384;-2.732;2022-09-09T11:22:22;5;5;
69123;PMS5003;56232;53.384;-2.732;2022-09-09T11:24:45;5;5;
69123;PMS5003;56232;53.384;-2.732;2022-09-09T11:27:10;6;6;
69123;PMS5003;56232;53.384;-2.732;2022-09-09T11:29:40;9;7;
69123;PMS5003;56232;53.384;-2.732;2022-09-09T11:32:04;5;5;
69123;PMS5003;56232;53.384;-2.732;2022-09-09T11:34:30;6;6;
69123;PMS5003;56232;53.384;-2.732;2022-09-09T11:36:57;6;5;
69123;PMS5003;56232;53.384;-2.732;2022-09-09T11:39:23;8;6;
69123;PMS5003;56232;53.384;-2.732;2022-09-09T11:41:43;4;4;
69123;PMS5003;56232;53.384;-2.732;2022-09-09T11:44:09;5;5;
69123;PMS5003;56232;53.384;-2.732;2022-09-09T11:46:34;6;6;
69123;PMS5003;56232;53.384;-2.732;2022-09-09T11:48:59;4;4;
69123;PMS5003;56232;53.384;-2.732;2022-09-09T11:51:25;5;5;
69123;PMS5003;56232;53.384;-2.732;2022-09-09T11:53:50;6;6;
69123;PMS5003;56232;53.384;-2.732;2022-09-09T11:58:41;5;5;
69123;PMS5003;56232;53.384;-2.732;2022-09-09T12:03:33;3;3;
69123;PMS5003;56232;53.384;-2.732;2022-09-09T12:05:57;5;4;
69123;PMS5003;56232;53.384;-2.732;2022-09-09T12:08:24;4;3;
69123;PMS5003;56232;53.384;-2.732;2022-09-09T12:10:53;3;3;
69123;PMS5003;56232;53.384;-2.732;2022-09-09T12:13:15;3;2;
69123;PMS5003;56232;53.384;-2.732;2022-09-09T12:18:04;2;2;
69123;PMS5003;56232;53.384;-2.732;2022-09-09T12:20:32;3;3;
69123;PMS5003;56232;53.384;-2.732;2022-09-09T12:23:01;3;3;
69123;PMS5003;56232;53.384;-2.732;2022-09-09T12:25:23;4;3;
69123;PMS5003;56232;53.384;-2.732;2022-09-09T12:27:49;3;2;
69123;PMS5003;56232;53.384;-2.732;2022-09-09T12:30:14;2;2;
69123;PMS5003;56232;53.384;-2.732;2022-09-09T12:32:37;4;4;
69123;PMS5003;56232;53.384;-2.732;2022-09-09T12:35:04;4;3;
69123;PMS5003;56232;53.384;-2.732;2022-09-09T12:37:29;3;2;
69123;PMS5003;56232;53.384;-2.732;2022-09-09T12:39:55;2;1;
69123;PMS5003;56232;53.384;-2.732;2022-09-09T12:42:20;2;2;
69123;PMS5003;56232;53.384;-2.732;2022-09-09T12:47:11;2;2;
69123;PMS5003;56232;53.384;-2.732;2022-09-09T12:49:36;2;2;
69123;PMS5003;56232;53.384;-2.732;2022-09-09T12:52:03;2;2;
69123;PMS5003;56232;53.384;-2.732;2022-09-09T12:54:27;3;3;
69123;PMS5003;56232;53.384;-2.732;2022-09-09T12:56:53;5;5;
69123;PMS5003;56232;53.384;-2.732;2022-09-09T12:59:22;1;1;
69123;PMS5003;56232;53.384;-2.732;2022-09-09T13:01:44;2;2;
69123;PMS5003;56232;53.384;-2.732;2022-09-09T13:06:35;2;2;
69123;PMS5003;56232;53.384;-2.732;2022-09-09T13:09:01;4;3;
69123;PMS5003;56232;53.384;-2.732;2022-09-09T13:11:27;2;2;
69123;PMS5003;56232;53.384;-2.732;2022-09-09T13:13:52;2;2;
69123;PMS5003;56232;53.384;-2.732;2022-09-09T13:16:19;3;3;
69123;PMS5003;56232;53.384;-2.732;2022-09-09T13:18:42;4;4;
69123;PMS5003;56232;53.384;-2.732;2022-09-09T13:21:08;2;2;
69123;PMS5003;56232;53.384;-2.732;2022-09-09T13:23:34;3;3;
69123;PMS5003;56232;53.384;-2.732;2022-09-09T13:25:59;3;3;
69123;PMS5003;56232;53.384;-2.732;2022-09-09T13:28:25;3;3;
69123;PMS5003;56232;53.384;-2.732;2022-09-09T13:33:20;2;2;
69123;PMS5003;56232;53.384;-2.732;2022-09-09T13:35:45;2;2;
69123;PMS5003;56232;53.384;-2.732;2022-09-09T13:38:07;2;2;
69123;PMS5003;56232;53.384;-2.732;2022-09-09T13:40:32;2;2;
69123;PMS5003;56232;53.384;-2.732;2022-09-09T13:42:57;2;2;
69123;PMS5003;56232;53.384;-2.732;2022-09-09T13:45:23;2;2;
69123;PMS5003;56232;53.384;-2.732;2022-09-09T13:47:49;2;2;
69123;PMS5003;56232;53.384;-2.732;2022-09-09T13:50:18;2;1;
69123;PMS5003;56232;53.384;-2.732;2022-09-09T13:52:39;2;2;
69123;PMS5003;56232;53.384;-2.732;2022-09-09T13:55:05;2;2;
69123;PMS5003;56232;53.384;-2.732;2022-09-09T13:57:30;3;2;
69123;PMS5003;56232;53.384;-2.732;2022-09-09T13:59:56;1;1;
69123;PMS5003;56232;53.384;-2.732;2022-09-09T14:02:21;1;1;
69123;PMS5003;56232;53.384;-2.732;2022-09-09T14:04:47;0;0;
69123;PMS5003;56232;53.384;-2.732;2022-09-09T14:07:13;2;1;
69123;PMS5003;56232;53.384;-2.732;2022-09-09T14:09:38;0;0;
69123;PMS5003;56232;53.384;-2.732;2022-09-09T14:12:04;1;1;
69123;PMS5003;56232;53.384;-2.732;2022-09-09T14:14:29;2;2;
69123;PMS5003;56232;53.384;-2.732;2022-09-09T14:16:54;2;2;
69123;PMS5003;56232;53.384;-2.732;2022-09-09T14:19:20;1;1;
69123;PMS5003;56232;53.384;-2.732;2022-09-09T14:21:45;1;1;
69123;PMS5003;56232;53.384;-2.732;2022-09-09T14:24:11;1;1;
69123;PMS5003;56232;53.384;-2.732;2022-09-09T14:26:36;3;3;
69123;PMS5003;56232;53.384;-2.732;2022-09-09T14:29:02;2;2;
69123;PMS5003;56232;53.384;-2.732;2022-09-09T14:31:27;2;1;
69123;PMS5003;56232;53.384;-2.732;2022-09-09T14:33:53;1;0;
69123;PMS5003;56232;53.384;-2.732;2022-09-09T14:36:18;0;0;
69123;PMS5003;56232;53.384;-2.732;2022-09-09T14:38:45;2;2;
69123;PMS5003;56232;53.384;-2.732;2022-09-09T14:41:10;2;2;
69123;PMS5003;56232;53.384;-2.732;2022-09-09T14:43:35;3;3;
69123;PMS5003;56232;53.384;-2.732;2022-09-09T14:46:04;3;3;
69123;PMS5003;56232;53.384;-2.732;2022-09-09T14:48:26;3;2;
69123;PMS5003;56232;53.384;-2.732;2022-09-09T14:50:52;2;2;
69123;PMS5003;56232;53.384;-2.732;2022-09-09T14:53:17;2;2;
69123;PMS5003;56232;53.384;-2.732;2022-09-09T14:55:43;3;3;
69123;PMS5003;56232;53.384;-2.732;2022-09-09T14:58:08;2;2;
69123;PMS5003;56232;53.384;-2.732;2022-09-09T15:00:34;3;3;
69123;PMS5003;56232;53.384;-2.732;2022-09-09T15:02:59;1;1;
69123;PMS5003;56232;53.384;-2.732;2022-09-09T15:05:25;3;3;
69123;PMS5003;56232;53.384;-2.732;2022-09-09T15:07:50;2;2;
69123;PMS5003;56232;53.384;-2.732;2022-09-09T15:10:16;2;2;
69123;PMS5003;56232;53.384;-2.732;2022-09-09T15:12:41;1;0;
69123;PMS5003;56232;53.384;-2.732;2022-09-09T15:15:07;2;2;
69123;PMS5003;56232;53.384;-2.732;2022-09-09T15:17:32;2;2;
69123;PMS5003;56232;53.384;-2.732;2022-09-09T15:19:58;2;2;
69123;PMS5003;56232;53.384;-2.732;2022-09-09T15:22:23;2;2;
69123;PMS5003;56232;53.384;-2.732;2022-09-09T15:24:49;4;3;
69123;PMS5003;56232;53.384;-2.732;2022-09-09T15:27:14;2;2;
69123;PMS5003;56232;53.384;-2.732;2022-09-09T15:29:40;4;3;
69123;PMS5003;56232;53.384;-2.732;2022-09-09T15:32:05;1;1;
69123;PMS5003;56232;53.384;-2.732;2022-09-09T15:34:31;2;2;
69123;PMS5003;56232;53.384;-2.732;2022-09-09T15:36:56;3;3;
69123;PMS5003;56232;53.384;-2.732;2022-09-09T15:39:22;2;2;
69123;PMS5003;56232;53.384;-2.732;2022-09-09T15:41:47;1;1;
69123;PMS5003;56232;53.384;-2.732;2022-09-09T15:44:13;3;3;
69123;PMS5003;56232;53.384;-2.732;2022-09-09T15:46:39;2;2;
69123;PMS5003;56232;53.384;-2.732;2022-09-09T15:49:05;2;2;
69123;PMS5003;56232;53.384;-2.732;2022-09-09T15:51:35;2;2;
69123;PMS5003;56232;53.384;-2.732;2022-09-09T15:53:55;2;2;
69123;PMS5003;56232;53.384;-2.732;2022-09-09T15:56:21;2;2;
69123;PMS5003;56232;53.384;-2.732;2022-09-09T15:58:46;2;2;
69123;PMS5003;56232;53.384;-2.732;2022-09-09T16:01:12;3;2;
69123;PMS5003;56232;53.384;-2.732;2022-09-09T16:03:38;2;2;
69123;PMS5003;56232;53.384;-2.732;2022-09-09T16:06:03;2;2;
69123;PMS5003;56232;53.384;-2.732;2022-09-09T16:08:31;0;0;
69123;PMS5003;56232;53.384;-2.732;2022-09-09T16:10:54;1;1;
69123;PMS5003;56232;53.384;-2.732;2022-09-09T16:13:19;2;2;
69123;PMS5003;56232;53.384;-2.732;2022-09-09T16:15:45;2;2;
69123;PMS5003;56232;53.384;-2.732;2022-09-09T16:18:10;2;2;
69123;PMS5003;56232;53.384;-2.732;2022-09-09T16:20:36;2;2;
69123;PMS5003;56232;53.384;-2.732;2022-09-09T16:23:02;1;1;
69123;PMS5003;56232;53.384;-2.732;2022-09-09T16:25:27;2;2;
69123;PMS5003;56232;53.384;-2.732;2022-09-09T16:27:53;2;2;